Time;durP1;ratioP1;P1;durP2;ratioP2;P2;SDS_P1;SDS_P2;PMS_P1;PMS_P2;Temp;Humidity;BMP_temperature;BMP_pressure;BME280_temperature;BME280_humidity;BME280_pressure;Samples;Min_cycle;Max_cycle;Signal;HPM_P1;HPM_P2
2022/07/17 00:01:47;;;;;;;15.48;3.70;;;;;;;13.52;91.48;102531.84;5053254;28;20438;-64
2022/07/17 00:04:13;;;;;;;16.67;4.05;;;;;;;13.54;92.12;102527.47;5052976;28;20075;-64
2022/07/17 00:06:38;;;;;;;12.82;3.70;;;;;;;13.55;91.68;102537.22;5052820;28;20033;-63
2022/07/17 00:09:03;;;;;;;14.65;3.70;;;;;;;13.41;92.85;102533.41;5052640;28;20050;-64
2022/07/17 00:11:29;;;;;;;16.55;4.43;;;;;;;13.32;96.13;102533.19;5052865;28;20033;-63
2022/07/17 00:13:54;;;;;;;17.75;4.43;;;;;;;13.17;96.38;102539.97;5053416;28;20464;-63
2022/07/17 00:16:20;;;;;;;17.33;4.60;;;;;;;13.04;97.01;102537.94;5053050;28;20029;-63
2022/07/17 00:18:45;;;;;;;18.10;4.43;;;;;;;13.00;99.70;102539.63;5052774;28;20114;-63
2022/07/17 00:21:10;;;;;;;16.48;4.38;;;;;;;12.97;100.00;102541.34;5052801;28;20037;-63
2022/07/17 00:23:36;;;;;;;15.02;4.15;;;;;;;13.04;100.00;102540.59;5052640;28;20021;-63
2022/07/17 00:26:01;;;;;;;13.60;3.80;;;;;;;13.06;99.98;102537.13;5052512;28;20067;-63
2022/07/17 00:28:26;;;;;;;14.73;4.10;;;;;;;13.05;99.56;102537.09;5052672;28;20586;-63
2022/07/17 00:30:52;;;;;;;15.05;4.47;;;;;;;13.05;99.46;102540.63;5052797;28;20048;-63
2022/07/17 00:33:17;;;;;;;13.57;4.18;;;;;;;13.01;98.80;102540.53;5052832;28;20439;-63
2022/07/17 00:35:42;;;;;;;13.90;4.00;;;;;;;12.98;100.00;102533.41;5052336;28;20028;-63
2022/07/17 00:38:10;;;;;;;14.30;3.97;;;;;;;12.92;100.00;102538.59;5051723;28;20021;-63
2022/07/17 00:40:35;;;;;;;16.65;4.00;;;;;;;12.87;100.00;102534.91;5052285;28;20029;-63
2022/07/17 00:43:00;;;;;;;13.77;3.92;;;;;;;12.68;100.00;102533.63;5052405;28;20040;-63
2022/07/17 00:45:26;;;;;;;14.23;4.10;;;;;;;12.60;100.00;102540.53;5048393;28;20048;-63
2022/07/17 00:47:59;;;;;;;16.98;4.72;;;;;;;12.48;100.00;102536.72;5052493;28;20033;-63
2022/07/17 00:50:30;;;;;;;16.73;4.50;;;;;;;12.47;100.00;102540.22;5051426;28;20141;-64
2022/07/17 00:52:56;;;;;;;17.00;4.57;;;;;;;12.40;100.00;102540.94;5052027;28;20028;-63
2022/07/17 00:55:22;;;;;;;18.85;6.03;;;;;;;12.31;100.00;102546.91;5052248;28;20032;-63
2022/07/17 00:57:48;;;;;;;19.27;5.80;;;;;;;12.28;100.00;102538.00;5051568;28;20100;-63
2022/07/17 01:00:16;;;;;;;17.35;4.65;;;;;;;12.23;100.00;102537.00;5052030;28;20123;-63
2022/07/17 01:02:45;;;;;;;16.00;4.38;;;;;;;12.25;100.00;102533.53;5051674;28;20475;-63
2022/07/17 01:05:10;;;;;;;14.60;4.75;;;;;;;12.25;100.00;102532.66;5051151;28;20108;-63
2022/07/17 01:07:35;;;;;;;16.17;4.35;;;;;;;12.21;100.00;102532.53;5051643;28;20515;-63
2022/07/17 01:10:01;;;;;;;17.48;4.60;;;;;;;12.20;100.00;102529.84;5052230;28;20485;-63
2022/07/17 01:12:27;;;;;;;18.30;4.30;;;;;;;12.28;100.00;102524.75;5051575;28;20481;-63
2022/07/17 01:14:52;;;;;;;16.45;4.53;;;;;;;12.25;100.00;102522.03;5050991;28;20025;-63
2022/07/17 01:17:18;;;;;;;15.82;4.13;;;;;;;12.18;100.00;102521.88;5050868;28;20027;-63
2022/07/17 01:19:43;;;;;;;14.30;4.20;;;;;;;12.05;100.00;102524.19;5051442;28;20060;-63
2022/07/17 01:22:09;;;;;;;15.43;4.35;;;;;;;11.97;100.00;102519.59;5051445;28;20044;-63
2022/07/17 01:24:38;;;;;;;14.43;4.10;;;;;;;11.97;100.00;102523.97;5051917;28;20033;-63
2022/07/17 01:27:04;;;;;;;14.57;4.18;;;;;;;11.97;100.00;102524.91;5051112;28;20052;-63
2022/07/17 01:29:29;;;;;;;13.82;4.30;;;;;;;11.97;100.00;102522.25;5051896;28;20122;-63
2022/07/17 01:31:54;;;;;;;20.50;6.70;;;;;;;11.89;100.00;102518.47;5051514;28;20527;-63
2022/07/17 01:34:20;;;;;;;19.73;5.65;;;;;;;11.82;100.00;102517.44;5051042;28;20032;-63
2022/07/17 01:36:45;;;;;;;16.33;4.80;;;;;;;11.91;100.00;102513.19;5050735;28;20036;-63
2022/07/17 01:39:11;;;;;;;16.52;4.25;;;;;;;11.78;100.00;102506.69;5051787;28;20033;-63
2022/07/17 01:41:36;;;;;;;15.90;4.43;;;;;;;11.59;100.00;102513.25;5051087;28;20064;-63
2022/07/17 01:44:03;;;;;;;17.17;4.43;;;;;;;11.55;100.00;102520.22;5051563;28;20159;-63
2022/07/17 01:46:29;;;;;;;15.57;4.40;;;;;;;11.42;100.00;102524.28;5049865;28;20055;-63
2022/07/17 01:48:54;;;;;;;20.20;7.03;;;;;;;11.34;100.00;102524.09;5050828;28;20021;-63
2022/07/17 01:51:21;;;;;;;22.00;7.53;;;;;;;11.27;100.00;102526.50;5051569;28;20468;-63
2022/07/17 01:53:46;;;;;;;17.02;5.10;;;;;;;11.14;100.00;102531.47;5051020;28;20111;-63
2022/07/17 01:56:12;;;;;;;16.55;4.93;;;;;;;11.11;100.00;102535.75;5050942;28;20163;-63
2022/07/17 01:58:38;;;;;;;15.48;4.57;;;;;;;11.09;100.00;102542.75;5050776;28;20029;-63
2022/07/17 02:01:03;;;;;;;16.02;5.00;;;;;;;11.07;100.00;102542.72;5049411;28;20040;-63
2022/07/17 02:03:28;;;;;;;16.08;4.65;;;;;;;11.03;100.00;102537.31;5050630;28;20102;-63
2022/07/17 02:05:54;;;;;;;14.38;4.43;;;;;;;10.94;100.00;102545.88;5051263;28;20460;-63
2022/07/17 02:08:19;;;;;;;19.40;6.68;;;;;;;10.90;100.00;102541.31;5050309;28;20511;-63
2022/07/17 02:10:44;;;;;;;17.95;5.60;;;;;;;10.77;100.00;102543.59;5050550;28;20017;-63
2022/07/17 02:13:10;;;;;;;17.98;5.35;;;;;;;10.84;100.00;102533.22;5051040;28;20025;-63
2022/07/17 02:15:35;;;;;;;15.32;4.60;;;;;;;10.89;100.00;102537.78;5050243;28;20487;-63
2022/07/17 02:18:00;;;;;;;15.32;4.60;;;;;;;10.92;100.00;102539.59;5049304;28;20029;-64
2022/07/17 02:20:26;;;;;;;15.18;4.93;;;;;;;10.99;100.00;102528.34;5050968;28;20021;-63
2022/07/17 02:22:51;;;;;;;15.30;4.57;;;;;;;11.02;100.00;102533.75;5050564;28;20044;-63
2022/07/17 02:25:16;;;;;;;15.93;5.00;;;;;;;10.96;100.00;102530.91;5050852;28;20361;-63
2022/07/17 02:27:42;;;;;;;19.52;5.43;;;;;;;10.97;100.00;102545.94;5049426;28;20430;-63
2022/07/17 02:30:14;;;;;;;15.48;4.78;;;;;;;10.85;100.00;102550.84;5050555;28;20427;-63
2022/07/17 02:32:40;;;;;;;15.30;4.35;;;;;;;10.97;100.00;102532.72;5047963;28;20029;-64
2022/07/17 02:35:08;;;;;;;14.50;4.35;;;;;;;11.05;100.00;102541.75;5050934;28;20044;-63
2022/07/17 02:37:33;;;;;;;16.02;4.68;;;;;;;10.92;100.00;102534.31;5050078;28;20159;-63
2022/07/17 02:39:59;;;;;;;16.08;4.55;;;;;;;10.90;100.00;102536.03;5050986;28;20478;-63
2022/07/17 02:42:27;;;;;;;13.50;4.25;;;;;;;10.89;100.00;102534.22;5050473;28;20025;-63
2022/07/17 02:44:53;;;;;;;16.27;4.50;;;;;;;10.91;100.00;102532.53;5050241;28;20371;-63
2022/07/17 02:47:24;;;;;;;15.25;4.50;;;;;;;10.89;100.00;102515.72;5049788;28;20095;-63
2022/07/17 02:49:50;;;;;;;16.92;4.72;;;;;;;10.84;100.00;102514.69;5050853;28;20033;-63
2022/07/17 02:52:16;;;;;;;13.88;4.10;;;;;;;10.76;100.00;102519.72;5050559;28;20383;-63
2022/07/17 02:54:41;;;;;;;15.90;4.60;;;;;;;10.74;100.00;102522.34;5050705;28;20033;-64
2022/07/17 02:57:06;;;;;;;15.38;4.20;;;;;;;10.67;100.00;102520.34;5050135;28;20491;-63
2022/07/17 02:59:32;;;;;;;15.65;4.50;;;;;;;10.67;100.00;102516.81;5050078;28;20524;-63
2022/07/17 03:01:57;;;;;;;14.25;4.28;;;;;;;10.54;100.00;102521.75;5050567;28;20116;-64
2022/07/17 03:04:22;;;;;;;16.30;4.80;;;;;;;10.45;100.00;102524.97;5050175;28;20163;-63
2022/07/17 03:06:47;;;;;;;14.75;4.40;;;;;;;10.36;100.00;102529.97;5049870;28;20086;-64
2022/07/17 03:09:13;;;;;;;14.88;4.53;;;;;;;10.23;100.00;102531.28;5050378;28;20025;-64
2022/07/17 03:11:38;;;;;;;13.63;4.28;;;;;;;10.13;100.00;102534.47;5049814;28;20032;-63
2022/07/17 03:14:03;;;;;;;15.48;4.70;;;;;;;10.09;100.00;102540.50;5050157;28;20391;-63
2022/07/17 03:16:29;;;;;;;18.67;5.40;;;;;;;10.09;100.00;102543.13;5050156;28;20033;-64
2022/07/17 03:18:54;;;;;;;15.57;4.60;;;;;;;10.04;100.00;102540.34;5050392;28;20483;-63
2022/07/17 03:21:19;;;;;;;17.33;5.00;;;;;;;10.00;100.00;102548.13;5050113;28;20036;-63
2022/07/17 03:23:45;;;;;;;17.52;5.50;;;;;;;10.00;100.00;102546.38;5050292;28;20021;-63
2022/07/17 03:26:10;;;;;;;15.00;4.72;;;;;;;10.12;100.00;102549.44;5049800;28;20325;-63
2022/07/17 03:28:35;;;;;;;17.27;4.75;;;;;;;10.22;100.00;102539.16;5052248;28;20033;-64
2022/07/17 03:31:01;;;;;;;18.67;4.82;;;;;;;10.29;100.00;102533.22;5053447;28;20415;-63
2022/07/17 03:33:26;;;;;;;17.15;4.70;;;;;;;10.29;100.00;102534.16;5053993;28;20487;-64
2022/07/17 03:35:51;;;;;;;17.15;4.80;;;;;;;10.22;100.00;102545.38;5053810;28;20368;-63
2022/07/17 03:38:16;;;;;;;15.30;4.60;;;;;;;10.17;100.00;102546.06;5052908;28;20116;-63
2022/07/17 03:40:42;;;;;;;16.90;4.80;;;;;;;10.15;100.00;102537.16;5053512;28;20017;-63
2022/07/17 03:43:07;;;;;;;16.52;4.70;;;;;;;10.17;100.00;102533.75;5053925;28;20432;-63
2022/07/17 03:45:33;;;;;;;14.98;4.63;;;;;;;10.16;100.00;102536.31;5053436;28;20084;-63
2022/07/17 03:47:58;;;;;;;17.67;4.88;;;;;;;10.11;100.00;102534.44;5052812;28;20039;-63
2022/07/17 03:50:23;;;;;;;18.52;4.60;;;;;;;10.07;100.00;102535.16;5053348;28;20036;-63
2022/07/17 03:52:48;;;;;;;16.92;4.70;;;;;;;10.00;100.00;102537.56;5051936;28;20110;-63
2022/07/17 03:55:14;;;;;;;17.77;4.78;;;;;;;9.93;100.00;102537.38;5053075;28;20056;-63
2022/07/17 03:57:39;;;;;;;15.63;4.88;;;;;;;9.96;100.00;102533.94;5052953;28;20116;-63
2022/07/17 04:00:05;;;;;;;15.38;4.72;;;;;;;10.02;100.00;102531.50;5053020;28;20036;-63
2022/07/17 04:02:30;;;;;;;15.13;4.60;;;;;;;10.06;100.00;102543.03;5053002;28;20032;-63
2022/07/17 04:04:56;;;;;;;16.17;4.88;;;;;;;10.10;100.00;102544.94;5053187;28;20456;-63
2022/07/17 04:07:26;;;;;;;15.95;4.85;;;;;;;10.00;100.00;102548.13;5052394;28;20079;-64
2022/07/17 04:09:54;;;;;;;16.15;5.10;;;;;;;9.92;100.00;102559.34;5053480;28;20028;-63
2022/07/17 04:12:19;;;;;;;15.85;4.90;;;;;;;9.93;100.00;102552.28;5053220;28;20032;-63
2022/07/17 04:14:44;;;;;;;16.33;4.85;;;;;;;9.93;100.00;102554.94;5052916;28;20037;-63
2022/07/17 04:17:10;;;;;;;18.15;5.05;;;;;;;9.97;100.00;102558.59;5052788;28;20028;-63
2022/07/17 04:19:35;;;;;;;18.00;4.78;;;;;;;10.03;100.00;102559.72;5052968;28;20040;-63
2022/07/17 04:22:00;;;;;;;16.65;5.18;;;;;;;10.07;100.00;102556.31;5052777;28;20032;-63
2022/07/17 04:24:26;;;;;;;17.15;5.05;;;;;;;10.09;100.00;102559.00;5052810;28;20021;-64
2022/07/17 04:26:51;;;;;;;15.45;5.05;;;;;;;10.13;100.00;102566.19;5052193;28;20542;-63
2022/07/17 04:29:16;;;;;;;18.17;5.00;;;;;;;10.21;100.00;102562.06;5052832;28;20032;-64
2022/07/17 04:31:41;;;;;;;17.17;4.85;;;;;;;10.23;100.00;102562.13;5052682;28;20033;-63
2022/07/17 04:34:07;;;;;;;16.85;4.63;;;;;;;10.28;100.00;102560.50;5052184;28;20033;-63
2022/07/17 04:36:32;;;;;;;15.57;4.47;;;;;;;10.32;100.00;102565.06;5051137;28;20467;-64
2022/07/17 04:38:57;;;;;;;17.20;4.85;;;;;;;10.41;100.00;102561.84;5051698;28;20063;-63
2022/07/17 04:41:23;;;;;;;16.58;4.80;;;;;;;10.43;100.00;102550.47;5052409;28;20112;-63
2022/07/17 04:43:48;;;;;;;16.55;5.07;;;;;;;10.49;100.00;102549.78;5052726;28;20068;-63
2022/07/17 04:46:13;;;;;;;20.33;5.10;;;;;;;10.56;100.00;102554.41;5051683;28;20063;-62
2022/07/17 04:48:38;;;;;;;16.30;5.13;;;;;;;10.57;100.00;102550.00;5051727;28;20029;-63
2022/07/17 04:51:04;;;;;;;15.82;4.90;;;;;;;10.51;100.00;102558.63;5052183;28;20017;-64
2022/07/17 04:53:30;;;;;;;17.08;4.95;;;;;;;10.56;100.00;102564.09;5052532;28;20060;-64
2022/07/17 04:55:56;;;;;;;15.70;4.93;;;;;;;10.60;100.00;102569.53;5051873;28;20025;-63
2022/07/17 04:58:21;;;;;;;14.43;5.18;;;;;;;10.65;100.00;102574.97;5052296;28;20043;-64
2022/07/17 05:00:47;;;;;;;18.92;5.43;;;;;;;10.71;100.00;102580.44;5051856;28;20379;-63
2022/07/17 05:03:13;;;;;;;16.55;5.10;;;;;;;10.77;100.00;102579.72;5051381;28;20036;-63
2022/07/17 05:05:40;;;;;;;16.85;5.07;;;;;;;10.79;100.00;102580.66;5051993;28;20111;-63
2022/07/17 05:08:05;;;;;;;18.52;5.55;;;;;;;10.94;100.00;102581.16;5051109;28;20025;-63
2022/07/17 05:10:30;;;;;;;16.67;5.10;;;;;;;11.11;100.00;102579.03;5051678;28;20032;-63
2022/07/17 05:12:56;;;;;;;19.98;5.38;;;;;;;11.20;100.00;102577.47;5052387;28;20060;-64
2022/07/17 05:15:21;;;;;;;17.95;5.63;;;;;;;11.30;100.00;102576.88;5051869;28;20070;-63
2022/07/17 05:17:46;;;;;;;17.38;5.40;;;;;;;11.41;100.00;102571.91;5051604;28;20183;-63
2022/07/17 05:20:12;;;;;;;17.70;5.70;;;;;;;11.57;100.00;102567.94;5051788;28;20440;-63
2022/07/17 05:22:37;;;;;;;18.23;5.68;;;;;;;11.68;100.00;102559.44;5051853;28;20039;-64
2022/07/17 05:25:03;;;;;;;21.17;5.95;;;;;;;11.82;100.00;102567.78;5051796;28;20021;-63
2022/07/17 05:27:28;;;;;;;20.63;6.43;;;;;;;11.97;100.00;102563.72;5051554;28;20483;-62
2022/07/17 05:29:54;;;;;;;19.92;6.50;;;;;;;12.00;100.00;102561.19;5051340;28;20053;-64
2022/07/17 05:32:19;;;;;;;21.02;6.90;;;;;;;12.15;100.00;102568.63;5051486;28;20060;-63
2022/07/17 05:34:45;;;;;;;22.15;6.68;;;;;;;12.20;100.00;102566.97;5051368;28;20459;-64
2022/07/17 05:37:10;;;;;;;22.38;6.78;;;;;;;12.29;100.00;102571.59;5050958;28;20399;-64
2022/07/17 05:39:36;;;;;;;21.10;7.15;;;;;;;12.35;100.00;102570.00;5050801;28;20063;-63
2022/07/17 05:42:01;;;;;;;20.27;7.10;;;;;;;12.50;100.00;102571.25;5051151;28;20086;-63
2022/07/17 05:44:26;;;;;;;19.67;7.25;;;;;;;12.60;100.00;102577.66;5051598;28;20025;-63
2022/07/17 05:46:52;;;;;;;19.80;6.65;;;;;;;12.69;100.00;102556.66;5050838;28;20048;-63
2022/07/17 05:49:17;;;;;;;22.27;7.40;;;;;;;12.74;100.00;102557.63;5051275;28;20028;-63
2022/07/17 05:51:42;;;;;;;20.75;6.90;;;;;;;12.84;100.00;102562.31;5050622;28;20520;-63
2022/07/17 05:54:07;;;;;;;18.40;6.55;;;;;;;12.91;100.00;102573.94;5051040;28;20027;-63
2022/07/17 05:56:33;;;;;;;20.50;6.72;;;;;;;12.99;100.00;102574.09;5050721;28;20064;-64
2022/07/17 05:58:58;;;;;;;22.40;7.00;;;;;;;13.11;100.00;102570.84;5050891;28;20061;-64
2022/07/17 06:01:24;;;;;;;20.92;6.60;;;;;;;13.19;100.00;102562.19;5048904;28;20104;-63
2022/07/17 06:03:49;;;;;;;20.60;7.15;;;;;;;13.30;100.00;102561.50;5050780;28;20021;-62
2022/07/17 06:06:14;;;;;;;21.45;6.90;;;;;;;13.32;100.00;102567.72;5050941;28;20061;-63
2022/07/17 06:08:40;;;;;;;23.08;7.57;;;;;;;13.38;100.00;102549.28;5044859;28;20067;-64
2022/07/17 06:11:06;;;;;;;20.63;6.68;;;;;;;13.46;100.00;102558.31;5047790;28;20487;-63
2022/07/17 06:13:31;;;;;;;21.17;6.90;;;;;;;13.51;100.00;102546.00;5048603;28;20416;-63
2022/07/17 06:15:58;;;;;;;22.05;7.03;;;;;;;13.54;100.00;102543.41;5048538;28;20127;-64
2022/07/17 06:18:25;;;;;;;23.40;7.38;;;;;;;13.62;100.00;102545.31;5047994;28;20035;-64
2022/07/17 06:20:50;;;;;;;20.15;7.05;;;;;;;13.66;100.00;102544.50;5048570;28;20163;-64
2022/07/17 06:23:16;;;;;;;19.63;7.00;;;;;;;13.72;100.00;102540.19;5048345;28;20519;-63
2022/07/17 06:25:41;;;;;;;20.55;6.90;;;;;;;13.79;100.00;102546.53;5049261;28;20059;-64
2022/07/17 06:28:06;;;;;;;20.98;7.43;;;;;;;13.82;100.00;102548.31;5049407;28;20474;-64
2022/07/17 06:30:32;;;;;;;19.83;6.93;;;;;;;13.90;100.00;102555.56;5048534;28;20108;-64
2022/07/17 06:32:57;;;;;;;19.80;6.80;;;;;;;13.97;100.00;102561.91;5049254;28;20039;-63
2022/07/17 06:35:22;;;;;;;20.30;6.95;;;;;;;14.02;100.00;102575.28;5048342;28;20032;-63
2022/07/17 06:37:48;;;;;;;20.50;6.90;;;;;;;14.04;100.00;102576.22;5048704;28;20428;-65
2022/07/17 06:40:13;;;;;;;20.17;7.03;;;;;;;14.08;100.00;102567.38;5048222;28;20025;-64
2022/07/17 06:42:38;;;;;;;19.42;7.05;;;;;;;14.08;100.00;102572.72;5048594;28;20063;-64
2022/07/17 06:45:04;;;;;;;20.60;6.90;;;;;;;14.17;100.00;102590.59;5048871;28;20021;-65
2022/07/17 06:47:30;;;;;;;20.98;6.65;;;;;;;14.23;100.00;102588.94;5047986;28;20488;-64
2022/07/17 06:49:55;;;;;;;21.38;7.18;;;;;;;14.28;100.00;102584.59;5048123;28;20464;-64
2022/07/17 06:52:20;;;;;;;19.88;6.85;;;;;;;14.36;100.00;102592.69;5048529;28;20053;-63
2022/07/17 06:54:46;;;;;;;19.95;6.60;;;;;;;14.45;100.00;102597.28;5048595;28;20155;-63
2022/07/17 06:57:11;;;;;;;19.65;6.25;;;;;;;14.45;100.00;102603.47;5048184;28;20044;-64
2022/07/17 06:59:37;;;;;;;18.67;6.20;;;;;;;14.51;100.00;102594.69;5048053;28;20413;-64
2022/07/17 07:02:02;;;;;;;20.33;6.60;;;;;;;14.57;100.00;102599.22;5048700;28;20062;-64
2022/07/17 07:04:28;;;;;;;19.50;6.32;;;;;;;14.69;100.00;102601.22;5051596;28;20472;-64
2022/07/17 07:06:53;;;;;;;20.88;6.60;;;;;;;14.80;100.00;102597.84;5051236;28;20495;-64
2022/07/17 07:09:18;;;;;;;20.33;6.82;;;;;;;14.91;100.00;102606.00;5051204;28;20448;-64
2022/07/17 07:11:44;;;;;;;21.52;6.85;;;;;;;14.99;100.00;102614.97;5050122;28;20455;-64
2022/07/17 07:14:09;;;;;;;18.58;6.47;;;;;;;15.11;100.00;102616.91;5050759;28;20507;-63
2022/07/17 07:16:35;;;;;;;20.65;6.40;;;;;;;15.18;100.00;102625.88;5049801;28;20159;-63
2022/07/17 07:19:00;;;;;;;19.95;6.30;;;;;;;15.28;100.00;102624.25;5050336;28;20021;-63
2022/07/17 07:21:26;;;;;;;20.45;6.70;;;;;;;15.33;100.00;102628.75;5050022;28;20025;-63
2022/07/17 07:23:52;;;;;;;19.25;6.78;;;;;;;15.45;100.00;102619.09;5048168;28;20072;-64
2022/07/17 07:26:17;;;;;;;20.30;6.65;;;;;;;15.52;100.00;102615.63;5049057;28;20017;-63
2022/07/17 07:28:43;;;;;;;19.52;6.97;;;;;;;15.60;100.00;102605.97;5052373;28;20532;-64
2022/07/17 07:31:08;;;;;;;19.52;6.47;;;;;;;15.68;100.00;102609.63;5052537;28;20032;-65
2022/07/17 07:33:33;;;;;;;20.20;7.10;;;;;;;15.81;100.00;102604.44;5052474;28;20475;-64
2022/07/17 07:35:59;;;;;;;20.45;6.50;;;;;;;15.88;100.00;102606.31;5053567;28;20380;-63
2022/07/17 07:38:24;;;;;;;19.15;6.68;;;;;;;16.01;100.00;102610.88;5053166;28;20029;-64
2022/07/17 07:40:50;;;;;;;21.98;7.30;;;;;;;16.08;100.00;102609.16;5053713;28;20087;-64
2022/07/17 07:43:15;;;;;;;20.70;6.60;;;;;;;16.17;100.00;102605.69;5051796;28;20017;-63
2022/07/17 07:45:40;;;;;;;20.55;6.93;;;;;;;16.16;100.00;102611.91;5052454;28;20037;-63
2022/07/17 07:48:06;;;;;;;19.98;6.22;;;;;;;16.29;100.00;102605.78;5052353;28;20369;-64
2022/07/17 07:50:31;;;;;;;19.90;6.07;;;;;;;16.41;100.00;102618.38;5051136;28;20036;-64
2022/07/17 07:52:56;;;;;;;18.95;5.20;;;;;;;16.51;100.00;102619.31;5052866;28;20028;-64
2022/07/17 07:55:22;;;;;;;18.00;4.97;;;;;;;16.62;100.00;102612.28;5052344;28;20036;-63
2022/07/17 07:58:10;;;;;;;20.33;4.95;;;;;;;16.66;100.00;102618.53;5053440;28;20418;-63
2022/07/17 08:00:37;;;;;;;17.15;5.00;;;;;;;16.72;100.00;102623.94;5054022;28;20053;-64
2022/07/17 08:03:02;;;;;;;17.45;4.70;;;;;;;16.78;99.89;102626.63;5054582;28;20024;-63
2022/07/17 08:05:28;;;;;;;18.15;4.78;;;;;;;16.90;100.00;102620.50;5054756;28;20033;-64
2022/07/17 08:07:53;;;;;;;16.23;4.35;;;;;;;17.10;100.00;102620.63;5054756;28;20025;-65
2022/07/17 08:10:19;;;;;;;15.88;4.57;;;;;;;17.28;100.00;102626.94;5054891;28;20474;-63
2022/07/17 08:12:44;;;;;;;17.85;4.47;;;;;;;17.43;100.00;102617.22;5053890;28;20390;-63
2022/07/17 08:15:10;;;;;;;16.38;4.20;;;;;;;17.55;99.57;102628.84;5048912;28;20025;-63
2022/07/17 08:17:35;;;;;;;15.40;4.20;;;;;;;17.63;96.45;102632.41;5049680;28;20039;-64
2022/07/17 08:20:01;;;;;;;17.63;3.85;;;;;;;17.78;96.14;102629.78;5049614;28;20090;-63
2022/07/17 08:22:26;;;;;;;17.85;3.95;;;;;;;17.85;93.10;102629.81;5049774;28;20108;-64
2022/07/17 08:24:51;;;;;;;14.20;4.10;;;;;;;17.85;93.49;102628.00;5049788;28;20057;-63
2022/07/17 08:27:17;;;;;;;16.10;4.25;;;;;;;17.85;92.70;102630.69;5049773;28;20494;-63
2022/07/17 08:29:42;;;;;;;15.95;4.20;;;;;;;17.92;93.10;102626.28;5050130;28;20074;-64
2022/07/17 08:32:07;;;;;;;17.30;4.03;;;;;;;18.06;92.63;102629.00;5049134;28;20057;-64
2022/07/17 08:34:33;;;;;;;14.05;3.63;;;;;;;18.23;89.50;102634.34;5047980;28;20052;-64
2022/07/17 08:36:58;;;;;;;15.63;3.40;;;;;;;18.41;84.80;102626.34;5047698;28;20025;-63
2022/07/17 08:39:23;;;;;;;13.45;3.40;;;;;;;18.44;84.70;102623.66;5049962;28;20025;-65
2022/07/17 08:41:49;;;;;;;11.55;3.10;;;;;;;18.54;83.84;102623.66;5044189;28;20383;-64
2022/07/17 08:44:15;;;;;;;16.15;3.50;;;;;;;18.57;83.17;102615.63;5046831;28;20021;-64
2022/07/17 08:46:40;;;;;;;12.65;2.90;;;;;;;18.73;81.91;102620.06;5053986;28;20036;-64
2022/07/17 08:49:07;;;;;;;12.40;3.40;;;;;;;19.14;75.68;102621.75;5054040;28;20033;-63
2022/07/17 08:51:33;;;;;;;11.98;3.38;;;;;;;19.57;72.60;102625.16;5053766;28;20025;-64
2022/07/17 08:53:59;;;;;;;13.40;3.45;;;;;;;19.67;76.90;102627.81;5053959;28;20446;-65
2022/07/17 08:56:26;;;;;;;11.05;3.08;;;;;;;19.80;74.53;102625.94;5053606;28;20120;-65
2022/07/17 08:58:52;;;;;;;11.90;3.20;;;;;;;19.88;73.95;102620.56;5053808;28;20031;-64
2022/07/17 09:01:19;;;;;;;16.33;3.20;;;;;;;19.87;75.06;102608.03;5053788;28;20119;-64
2022/07/17 09:04:14;;;;;;;14.73;3.55;;;;;;;20.11;76.05;102617.72;5053843;28;20032;-64
2022/07/17 09:06:39;;;;;;;13.68;3.30;;;;;;;20.18;73.47;102623.91;5024672;28;20408;-65
2022/07/17 09:09:04;;;;;;;14.20;3.45;;;;;;;20.10;72.60;102618.59;5031563;28;20063;-64
2022/07/17 09:11:40;;;;;;;15.45;3.20;;;;;;;20.13;74.66;102618.56;5010854;28;20144;-64
2022/07/17 09:14:06;;;;;;;17.27;3.47;;;;;;;20.42;73.88;102614.78;5031737;28;20112;-64
2022/07/17 09:16:35;;;;;;;14.38;3.35;;;;;;;20.67;73.36;102611.88;5031256;28;20041;-64
2022/07/17 09:19:00;;;;;;;14.57;3.60;;;;;;;20.88;70.21;102610.75;5027462;28;20041;-65
2022/07/17 09:21:27;;;;;;;15.18;3.50;;;;;;;20.94;68.04;102615.16;5031393;28;20108;-64
2022/07/17 09:24:02;;;;;;;11.95;3.30;;;;;;;21.13;68.85;102611.38;5031167;28;20037;-65
2022/07/17 09:26:29;;;;;;;14.95;3.60;;;;;;;21.38;67.32;102616.44;5030611;28;20447;-64
2022/07/17 09:28:54;;;;;;;12.00;3.33;;;;;;;21.53;67.16;102616.25;5031121;28;20021;-64
2022/07/17 09:31:28;;;;;;;15.85;3.80;;;;;;;21.53;66.17;102607.31;5030195;28;20034;-64
2022/07/17 09:33:54;;;;;;;12.95;3.28;;;;;;;21.72;67.33;102610.63;5030752;28;20352;-66
2022/07/17 09:36:19;;;;;;;13.93;3.25;;;;;;;21.80;63.42;102608.72;5030452;28;20044;-64
2022/07/17 09:38:46;;;;;;;14.38;3.10;;;;;;;22.02;61.16;102608.38;5030668;28;20086;-64
2022/07/17 09:41:16;;;;;;;11.88;2.88;;;;;;;22.09;60.07;102599.28;5030657;28;20091;-64
2022/07/17 09:43:54;;;;;;;12.38;3.00;;;;;;;22.11;59.09;102600.16;5047897;28;20036;-64
2022/07/17 09:46:24;;;;;;;10.75;3.10;;;;;;;22.25;56.79;102598.13;5049373;28;20060;-65
2022/07/17 09:48:52;;;;;;;12.30;2.85;;;;;;;22.16;46.91;102603.66;5049532;28;20021;-64
2022/07/17 09:51:34;;;;;;;12.55;3.03;;;;;;;22.35;51.54;102608.78;5049344;28;20105;-64
2022/07/17 09:54:02;;;;;;;10.13;2.80;;;;;;;22.51;47.45;102607.56;5050745;28;20065;-64
2022/07/17 09:56:31;;;;;;;13.15;3.10;;;;;;;22.44;46.57;102608.59;5052653;28;20108;-64
2022/07/17 09:59:08;;;;;;;14.88;3.83;;;;;;;22.64;49.04;102602.84;5052682;28;20487;-64
2022/07/17 10:01:34;;;;;;;15.85;3.60;;;;;;;22.63;48.26;102599.28;5052809;28;20029;-64
2022/07/17 10:03:59;;;;;;;11.80;3.22;;;;;;;23.14;48.04;102608.22;5052717;28;20025;-65
2022/07/17 10:06:26;;;;;;;12.80;3.33;;;;;;;24.31;45.97;102610.94;5052375;28;20484;-64
2022/07/17 10:08:52;;;;;;;11.45;3.30;;;;;;;25.91;39.58;102613.59;5052831;28;20371;-64
2022/07/17 10:11:27;;;;;;;13.90;3.30;;;;;;;27.51;35.96;102611.59;5052331;28;20115;-65
2022/07/17 10:13:54;;;;;;;15.45;3.00;;;;;;;28.92;32.77;102608.41;5052370;28;20082;-64
2022/07/17 10:16:28;;;;;;;11.77;3.05;;;;;;;29.96;31.59;102616.19;5052671;28;20476;-65
2022/07/17 10:18:55;;;;;;;14.02;3.10;;;;;;;30.14;29.43;102608.06;5052379;28;20036;-65
2022/07/17 10:21:21;;;;;;;13.45;3.05;;;;;;;30.57;28.31;102611.31;5052331;28;20021;-65
2022/07/17 10:24:05;;;;;;;10.15;2.67;;;;;;;31.21;24.83;102609.69;5052401;28;20086;-64
2022/07/17 10:26:36;;;;;;;11.57;2.80;;;;;;;31.69;25.71;102612.47;5048398;28;20025;-65
2022/07/17 10:29:03;;;;;;;11.75;2.80;;;;;;;31.81;24.94;102599.94;5048589;28;20040;-65
2022/07/17 10:31:30;;;;;;;11.00;2.80;;;;;;;32.06;25.13;102609.44;5052380;28;20036;-65
2022/07/17 10:34:00;;;;;;;12.57;3.10;;;;;;;32.15;25.57;102619.84;5052230;28;20040;-65
2022/07/17 10:36:37;;;;;;;13.43;2.90;;;;;;;32.62;25.64;102610.59;5052340;28;20152;-65
2022/07/17 10:39:18;;;;;;;9.43;2.70;;;;;;;33.45;25.34;102615.44;5051696;28;20033;-65
2022/07/17 10:41:55;;;;;;;12.23;2.80;;;;;;;33.65;25.04;102605.88;5054247;28;20047;-65
2022/07/17 10:44:29;;;;;;;11.45;2.60;;;;;;;33.77;24.39;102595.13;5056364;28;20158;-65
2022/07/17 10:46:56;;;;;;;10.88;2.90;;;;;;;34.10;23.33;102610.28;5055987;28;20399;-65
2022/07/17 10:49:23;;;;;;;14.75;3.30;;;;;;;33.82;24.36;102601.19;5056342;28;20115;-65
2022/07/17 10:51:48;;;;;;;12.43;3.00;;;;;;;34.13;23.70;102599.97;5056029;28;20021;-65
2022/07/17 10:54:14;;;;;;;10.95;2.90;;;;;;;34.45;23.15;102593.25;5056083;28;20025;-65
2022/07/17 10:56:44;;;;;;;11.68;2.90;;;;;;;34.53;22.09;102599.09;5056071;28;20107;-65
2022/07/17 10:59:10;;;;;;;13.82;2.70;;;;;;;34.90;21.34;102607.47;5056388;28;20157;-65
2022/07/17 11:01:35;;;;;;;11.60;2.80;;;;;;;35.31;21.19;102602.72;5055954;28;20021;-65
2022/07/17 11:04:07;;;;;;;15.85;3.05;;;;;;;35.49;20.09;102605.94;5051962;28;20044;-65
2022/07/17 11:06:38;;;;;;;14.77;2.72;;;;;;;35.46;20.65;102608.94;5051973;28;20024;-65
2022/07/17 11:09:05;;;;;;;12.82;2.47;;;;;;;35.65;20.74;102613.91;5052095;28;20029;-65